sensor_id;sensor_type;location;lat;lon;timestamp;P1;durP1;ratioP1;P2;durP2;ratioP2
23009;SDS011;11671;49.990;8.028;2023-03-01T00:01:20;14.98;;;8.73;;
23009;SDS011;11671;49.990;8.028;2023-03-01T00:03:49;15.90;;;9.75;;
23009;SDS011;11671;49.990;8.028;2023-03-01T00:06:15;14.60;;;8.45;;
23009;SDS011;11671;49.990;8.028;2023-03-01T00:08:41;15.10;;;8.55;;
23009;SDS011;11671;49.990;8.028;2023-03-01T00:11:14;19.33;;;8.70;;
23009;SDS011;11671;49.990;8.028;2023-03-01T00:13:42;15.88;;;8.23;;
23009;SDS011;11671;49.990;8.028;2023-03-01T00:16:13;19.88;;;8.75;;
23009;SDS011;11671;49.990;8.028;2023-03-01T00:18:40;18.17;;;9.48;;
23009;SDS011;11671;49.990;8.028;2023-03-01T00:21:06;16.98;;;8.10;;
23009;SDS011;11671;49.990;8.028;2023-03-01T00:23:33;14.82;;;8.05;;
23009;SDS011;11671;49.990;8.028;2023-03-01T00:25:59;17.13;;;8.80;;
23009;SDS011;11671;49.990;8.028;2023-03-01T00:28:25;19.23;;;9.13;;
23009;SDS011;11671;49.990;8.028;2023-03-01T00:30:51;18.85;;;8.75;;
23009;SDS011;11671;49.990;8.028;2023-03-01T00:33:17;15.50;;;8.93;;
23009;SDS011;11671;49.990;8.028;2023-03-01T00:35:43;23.55;;;8.85;;
23009;SDS011;11671;49.990;8.028;2023-03-01T00:38:08;17.80;;;8.15;;
23009;SDS011;11671;49.990;8.028;2023-03-01T00:40:34;21.17;;;9.48;;
23009;SDS011;11671;49.990;8.028;2023-03-01T00:43:01;15.75;;;9.10;;
23009;SDS011;11671;49.990;8.028;2023-03-01T00:45:27;15.05;;;8.25;;
23009;SDS011;11671;49.990;8.028;2023-03-01T00:47:55;15.35;;;8.27;;
23009;SDS011;11671;49.990;8.028;2023-03-01T00:50:21;18.00;;;8.82;;
23009;SDS011;11671;49.990;8.028;2023-03-01T00:52:51;14.45;;;8.73;;
23009;SDS011;11671;49.990;8.028;2023-03-01T00:55:17;17.15;;;9.00;;
23009;SDS011;11671;49.990;8.028;2023-03-01T00:57:43;16.90;;;8.80;;
23009;SDS011;11671;49.990;8.028;2023-03-01T01:00:09;20.23;;;9.32;;
23009;SDS011;11671;49.990;8.028;2023-03-01T01:02:36;16.83;;;9.30;;
23009;SDS011;11671;49.990;8.028;2023-03-01T01:05:02;17.98;;;8.32;;
23009;SDS011;11671;49.990;8.028;2023-03-01T01:07:29;20.58;;;8.68;;
23009;SDS011;11671;49.990;8.028;2023-03-01T01:09:54;15.63;;;9.13;;
23009;SDS011;11671;49.990;8.028;2023-03-01T01:12:20;15.82;;;8.65;;
23009;SDS011;11671;49.990;8.028;2023-03-01T01:14:45;15.52;;;9.35;;
23009;SDS011;11671;49.990;8.028;2023-03-01T01:17:11;14.57;;;7.82;;
23009;SDS011;11671;49.990;8.028;2023-03-01T01:19:36;15.73;;;8.68;;
23009;SDS011;11671;49.990;8.028;2023-03-01T01:22:02;16.75;;;8.93;;
23009;SDS011;11671;49.990;8.028;2023-03-01T01:24:28;16.17;;;8.98;;
23009;SDS011;11671;49.990;8.028;2023-03-01T01:26:54;14.35;;;8.10;;
23009;SDS011;11671;49.990;8.028;2023-03-01T01:29:19;13.88;;;7.85;;
23009;SDS011;11671;49.990;8.028;2023-03-01T01:31:45;17.42;;;9.07;;
23009;SDS011;11671;49.990;8.028;2023-03-01T01:34:15;16.73;;;8.30;;
23009;SDS011;11671;49.990;8.028;2023-03-01T01:36:42;20.88;;;8.90;;
23009;SDS011;11671;49.990;8.028;2023-03-01T01:39:09;17.33;;;8.48;;
23009;SDS011;11671;49.990;8.028;2023-03-01T01:41:38;17.77;;;9.13;;
23009;SDS011;11671;49.990;8.028;2023-03-01T01:44:20;14.13;;;8.15;;
23009;SDS011;11671;49.990;8.028;2023-03-01T01:57:23;17.70;;;9.25;;
23009;SDS011;11671;49.990;8.028;2023-03-01T01:59:54;19.40;;;9.30;;
23009;SDS011;11671;49.990;8.028;2023-03-01T02:02:23;17.45;;;9.43;;
23009;SDS011;11671;49.990;8.028;2023-03-01T02:04:49;20.98;;;10.90;;
23009;SDS011;11671;49.990;8.028;2023-03-01T02:07:23;16.23;;;9.70;;
23009;SDS011;11671;49.990;8.028;2023-03-01T02:09:51;20.70;;;10.20;;
23009;SDS011;11671;49.990;8.028;2023-03-01T02:12:19;22.73;;;11.43;;
23009;SDS011;11671;49.990;8.028;2023-03-01T02:14:47;23.52;;;10.63;;
23009;SDS011;11671;49.990;8.028;2023-03-01T02:17:14;18.52;;;9.93;;
23009;SDS011;11671;49.990;8.028;2023-03-01T02:19:52;19.38;;;9.55;;
23009;SDS011;11671;49.990;8.028;2023-03-01T02:22:38;17.05;;;8.38;;
23009;SDS011;11671;49.990;8.028;2023-03-01T02:30:49;16.75;;;9.63;;
23009;SDS011;11671;49.990;8.028;2023-03-01T02:33:34;13.95;;;8.48;;
23009;SDS011;11671;49.990;8.028;2023-03-01T02:36:03;19.88;;;10.35;;
23009;SDS011;11671;49.990;8.028;2023-03-01T02:38:32;19.27;;;10.00;;
23009;SDS011;11671;49.990;8.028;2023-03-01T02:40:58;18.08;;;10.02;;
23009;SDS011;11671;49.990;8.028;2023-03-01T02:43:26;15.98;;;9.73;;
23009;SDS011;11671;49.990;8.028;2023-03-01T02:45:57;18.55;;;9.57;;
23009;SDS011;11671;49.990;8.028;2023-03-01T02:48:26;18.90;;;9.38;;
23009;SDS011;11671;49.990;8.028;2023-03-01T02:50:55;16.88;;;8.90;;
23009;SDS011;11671;49.990;8.028;2023-03-01T02:56:10;20.83;;;10.25;;
23009;SDS011;11671;49.990;8.028;2023-03-01T02:58:38;16.10;;;9.10;;
23009;SDS011;11671;49.990;8.028;2023-03-01T03:01:10;19.38;;;9.75;;
23009;SDS011;11671;49.990;8.028;2023-03-01T03:03:39;18.55;;;9.85;;
23009;SDS011;11671;49.990;8.028;2023-03-01T03:06:05;21.80;;;11.13;;
23009;SDS011;11671;49.990;8.028;2023-03-01T03:08:31;22.83;;;10.10;;
23009;SDS011;11671;49.990;8.028;2023-03-01T03:10:57;23.45;;;9.82;;
23009;SDS011;11671;49.990;8.028;2023-03-01T03:13:22;18.85;;;10.27;;
23009;SDS011;11671;49.990;8.028;2023-03-01T03:15:53;23.25;;;11.02;;
23009;SDS011;11671;49.990;8.028;2023-03-01T03:18:19;18.10;;;9.93;;
23009;SDS011;11671;49.990;8.028;2023-03-01T03:20:45;20.77;;;9.88;;
23009;SDS011;11671;49.990;8.028;2023-03-01T03:23:11;22.13;;;10.55;;
23009;SDS011;11671;49.990;8.028;2023-03-01T03:25:36;20.27;;;10.68;;
23009;SDS011;11671;49.990;8.028;2023-03-01T03:28:03;19.92;;;10.15;;
23009;SDS011;11671;49.990;8.028;2023-03-01T03:30:34;20.27;;;10.10;;
23009;SDS011;11671;49.990;8.028;2023-03-01T03:33:04;21.85;;;10.10;;
23009;SDS011;11671;49.990;8.028;2023-03-01T03:35:32;19.27;;;9.63;;
23009;SDS011;11671;49.990;8.028;2023-03-01T03:38:07;27.75;;;10.93;;
23009;SDS011;11671;49.990;8.028;2023-03-01T03:40:41;17.75;;;9.35;;
23009;SDS011;11671;49.990;8.028;2023-03-01T03:43:13;19.23;;;10.15;;
23009;SDS011;11671;49.990;8.028;2023-03-01T03:45:40;23.33;;;10.15;;
23009;SDS011;11671;49.990;8.028;2023-03-01T03:48:08;19.00;;;9.63;;
23009;SDS011;11671;49.990;8.028;2023-03-01T03:50:34;17.27;;;10.27;;
23009;SDS011;11671;49.990;8.028;2023-03-01T03:53:00;26.77;;;10.85;;
23009;SDS011;11671;49.990;8.028;2023-03-01T03:55:27;19.67;;;11.13;;
23009;SDS011;11671;49.990;8.028;2023-03-01T03:57:59;21.17;;;12.07;;
23009;SDS011;11671;49.990;8.028;2023-03-01T04:03:05;17.70;;;8.90;;
23009;SDS011;11671;49.990;8.028;2023-03-01T04:05:31;18.42;;;9.95;;
23009;SDS011;11671;49.990;8.028;2023-03-01T04:07:56;22.98;;;10.98;;
23009;SDS011;11671;49.990;8.028;2023-03-01T04:10:29;20.35;;;10.13;;
23009;SDS011;11671;49.990;8.028;2023-03-01T04:12:56;19.48;;;9.95;;
23009;SDS011;11671;49.990;8.028;2023-03-01T04:15:22;21.25;;;9.68;;
23009;SDS011;11671;49.990;8.028;2023-03-01T04:17:50;18.05;;;9.73;;
23009;SDS011;11671;49.990;8.028;2023-03-01T04:20:20;22.02;;;10.45;;
23009;SDS011;11671;49.990;8.028;2023-03-01T04:22:52;18.35;;;10.07;;
23009;SDS011;11671;49.990;8.028;2023-03-01T04:25:22;16.45;;;8.98;;
23009;SDS011;11671;49.990;8.028;2023-03-01T04:27:48;19.75;;;10.10;;
23009;SDS011;11671;49.990;8.028;2023-03-01T04:30:13;20.48;;;10.32;;
23009;SDS011;11671;49.990;8.028;2023-03-01T04:32:39;23.58;;;12.15;;
23009;SDS011;11671;49.990;8.028;2023-03-01T04:35:05;20.98;;;10.32;;
23009;SDS011;11671;49.990;8.028;2023-03-01T04:37:31;24.77;;;11.02;;
23009;SDS011;11671;49.990;8.028;2023-03-01T04:39:56;17.75;;;10.32;;
23009;SDS011;11671;49.990;8.028;2023-03-01T04:42:22;22.35;;;11.27;;
23009;SDS011;11671;49.990;8.028;2023-03-01T04:44:48;23.50;;;10.60;;
23009;SDS011;11671;49.990;8.028;2023-03-01T04:47:16;23.10;;;11.80;;
23009;SDS011;11671;49.990;8.028;2023-03-01T04:49:42;21.80;;;10.98;;
23009;SDS011;11671;49.990;8.028;2023-03-01T04:52:07;22.13;;;10.23;;
23009;SDS011;11671;49.990;8.028;2023-03-01T04:54:34;23.23;;;10.93;;
23009;SDS011;11671;49.990;8.028;2023-03-01T04:57:01;20.83;;;11.07;;
23009;SDS011;11671;49.990;8.028;2023-03-01T04:59:28;23.58;;;11.38;;
23009;SDS011;11671;49.990;8.028;2023-03-01T05:01:54;23.92;;;12.20;;
23009;SDS011;11671;49.990;8.028;2023-03-01T05:04:21;17.67;;;9.60;;
23009;SDS011;11671;49.990;8.028;2023-03-01T05:06:47;21.15;;;10.88;;
23009;SDS011;11671;49.990;8.028;2023-03-01T05:09:13;20.98;;;11.35;;
23009;SDS011;11671;49.990;8.028;2023-03-01T05:11:39;24.17;;;11.35;;
23009;SDS011;11671;49.990;8.028;2023-03-01T05:14:05;23.88;;;11.93;;
23009;SDS011;11671;49.990;8.028;2023-03-01T05:16:32;22.10;;;11.32;;
23009;SDS011;11671;49.990;8.028;2023-03-01T05:18:58;26.40;;;12.10;;
23009;SDS011;11671;49.990;8.028;2023-03-01T05:21:24;28.40;;;12.68;;
23009;SDS011;11671;49.990;8.028;2023-03-01T05:23:50;19.70;;;10.70;;
23009;SDS011;11671;49.990;8.028;2023-03-01T05:26:16;23.00;;;11.48;;
23009;SDS011;11671;49.990;8.028;2023-03-01T05:28:44;39.80;;;12.63;;
23009;SDS011;11671;49.990;8.028;2023-03-01T05:31:10;26.40;;;12.10;;
23009;SDS011;11671;49.990;8.028;2023-03-01T05:33:36;25.05;;;11.82;;
23009;SDS011;11671;49.990;8.028;2023-03-01T05:36:03;25.52;;;12.82;;
23009;SDS011;11671;49.990;8.028;2023-03-01T05:38:28;26.83;;;12.98;;
23009;SDS011;11671;49.990;8.028;2023-03-01T05:40:54;24.90;;;13.30;;
23009;SDS011;11671;49.990;8.028;2023-03-01T05:43:20;21.85;;;11.48;;
23009;SDS011;11671;49.990;8.028;2023-03-01T05:45:46;26.98;;;11.95;;
23009;SDS011;11671;49.990;8.028;2023-03-01T05:48:11;25.30;;;12.07;;
23009;SDS011;11671;49.990;8.028;2023-03-01T05:50:39;22.92;;;12.75;;
23009;SDS011;11671;49.990;8.028;2023-03-01T05:53:11;25.13;;;12.68;;
23009;SDS011;11671;49.990;8.028;2023-03-01T05:55:38;25.02;;;11.65;;
23009;SDS011;11671;49.990;8.028;2023-03-01T05:58:05;27.42;;;12.80;;
23009;SDS011;11671;49.990;8.028;2023-03-01T06:00:34;31.73;;;13.50;;
23009;SDS011;11671;49.990;8.028;2023-03-01T06:03:00;30.58;;;14.05;;
23009;SDS011;11671;49.990;8.028;2023-03-01T06:05:26;24.60;;;13.00;;
23009;SDS011;11671;49.990;8.028;2023-03-01T06:07:52;25.48;;;13.18;;
23009;SDS011;11671;49.990;8.028;2023-03-01T06:10:19;28.40;;;13.77;;
23009;SDS011;11671;49.990;8.028;2023-03-01T06:12:46;29.95;;;13.95;;
23009;SDS011;11671;49.990;8.028;2023-03-01T06:15:13;26.92;;;13.95;;
23009;SDS011;11671;49.990;8.028;2023-03-01T06:17:40;23.50;;;12.18;;
23009;SDS011;11671;49.990;8.028;2023-03-01T06:20:09;23.45;;;12.32;;
23009;SDS011;11671;49.990;8.028;2023-03-01T06:22:45;29.83;;;12.43;;
23009;SDS011;11671;49.990;8.028;2023-03-01T06:25:12;25.92;;;12.77;;
23009;SDS011;11671;49.990;8.028;2023-03-01T06:27:39;30.48;;;13.60;;
23009;SDS011;11671;49.990;8.028;2023-03-01T06:30:05;29.88;;;13.70;;
23009;SDS011;11671;49.990;8.028;2023-03-01T06:32:32;38.10;;;15.93;;
23009;SDS011;11671;49.990;8.028;2023-03-01T06:34:58;44.60;;;19.58;;
23009;SDS011;11671;49.990;8.028;2023-03-01T06:37:24;57.30;;;25.52;;
23009;SDS011;11671;49.990;8.028;2023-03-01T06:39:53;43.28;;;21.20;;
23009;SDS011;11671;49.990;8.028;2023-03-01T06:42:19;38.30;;;18.33;;
23009;SDS011;11671;49.990;8.028;2023-03-01T06:44:44;43.25;;;20.88;;
23009;SDS011;11671;49.990;8.028;2023-03-01T06:47:10;41.80;;;20.50;;
23009;SDS011;11671;49.990;8.028;2023-03-01T06:49:36;40.75;;;19.15;;
23009;SDS011;11671;49.990;8.028;2023-03-01T06:52:02;36.78;;;17.48;;
23009;SDS011;11671;49.990;8.028;2023-03-01T06:54:27;32.63;;;17.15;;
23009;SDS011;11671;49.990;8.028;2023-03-01T06:56:53;28.27;;;15.70;;
23009;SDS011;11671;49.990;8.028;2023-03-01T06:59:18;33.22;;;14.38;;
23009;SDS011;11671;49.990;8.028;2023-03-01T07:04:10;31.05;;;15.93;;
23009;SDS011;11671;49.990;8.028;2023-03-01T07:06:37;26.45;;;15.32;;
23009;SDS011;11671;49.990;8.028;2023-03-01T07:13:00;32.40;;;16.10;;
23009;SDS011;11671;49.990;8.028;2023-03-01T07:15:26;33.88;;;18.33;;
23009;SDS011;11671;49.990;8.028;2023-03-01T07:17:52;30.35;;;16.08;;
23009;SDS011;11671;49.990;8.028;2023-03-01T07:22:44;28.42;;;16.80;;
23009;SDS011;11671;49.990;8.028;2023-03-01T07:27:35;39.17;;;19.95;;
23009;SDS011;11671;49.990;8.028;2023-03-01T07:30:01;33.25;;;18.85;;
23009;SDS011;11671;49.990;8.028;2023-03-01T07:32:27;37.38;;;20.63;;
23009;SDS011;11671;49.990;8.028;2023-03-01T07:37:18;39.03;;;20.50;;
23009;SDS011;11671;49.990;8.028;2023-03-01T07:42:09;31.35;;;16.70;;
23009;SDS011;11671;49.990;8.028;2023-03-01T07:47:01;28.30;;;13.95;;
23009;SDS011;11671;49.990;8.028;2023-03-01T07:49:27;24.10;;;13.40;;
23009;SDS011;11671;49.990;8.028;2023-03-01T07:54:19;26.33;;;12.77;;
23009;SDS011;11671;49.990;8.028;2023-03-01T07:59:10;22.50;;;12.50;;
23009;SDS011;11671;49.990;8.028;2023-03-01T08:04:01;24.30;;;12.15;;
23009;SDS011;11671;49.990;8.028;2023-03-01T08:08:52;22.52;;;12.73;;
23009;SDS011;11671;49.990;8.028;2023-03-01T08:11:20;23.35;;;12.45;;
23009;SDS011;11671;49.990;8.028;2023-03-01T08:16:13;19.83;;;12.80;;
23009;SDS011;11671;49.990;8.028;2023-03-01T08:18:40;21.13;;;13.30;;
23009;SDS011;11671;49.990;8.028;2023-03-01T08:21:08;22.00;;;11.85;;
23009;SDS011;11671;49.990;8.028;2023-03-01T08:23:35;31.00;;;13.43;;
23009;SDS011;11671;49.990;8.028;2023-03-01T08:28:32;20.92;;;11.85;;
23009;SDS011;11671;49.990;8.028;2023-03-01T08:33:23;18.90;;;10.98;;
23009;SDS011;11671;49.990;8.028;2023-03-01T08:38:14;19.20;;;10.63;;
23009;SDS011;11671;49.990;8.028;2023-03-01T08:43:05;20.95;;;10.43;;
23009;SDS011;11671;49.990;8.028;2023-03-01T08:45:31;18.20;;;10.40;;
23009;SDS011;11671;49.990;8.028;2023-03-01T08:50:22;17.55;;;10.80;;
23009;SDS011;11671;49.990;8.028;2023-03-01T08:52:49;24.42;;;11.75;;
23009;SDS011;11671;49.990;8.028;2023-03-01T08:57:42;16.63;;;10.38;;
23009;SDS011;11671;49.990;8.028;2023-03-01T09:00:08;18.15;;;10.75;;
23009;SDS011;11671;49.990;8.028;2023-03-01T09:02:36;20.75;;;11.45;;
23009;SDS011;11671;49.990;8.028;2023-03-01T09:05:02;18.00;;;11.60;;
23009;SDS011;11671;49.990;8.028;2023-03-01T09:09:54;22.05;;;11.88;;
23009;SDS011;11671;49.990;8.028;2023-03-01T09:12:22;18.58;;;11.10;;
23009;SDS011;11671;49.990;8.028;2023-03-01T09:14:49;18.55;;;10.75;;
23009;SDS011;11671;49.990;8.028;2023-03-01T09:19:40;19.35;;;12.30;;
23009;SDS011;11671;49.990;8.028;2023-03-01T09:24:31;19.48;;;11.43;;
23009;SDS011;11671;49.990;8.028;2023-03-01T09:26:57;20.85;;;11.65;;
23009;SDS011;11671;49.990;8.028;2023-03-01T09:31:48;21.30;;;11.32;;
23009;SDS011;11671;49.990;8.028;2023-03-01T09:36:43;21.92;;;12.20;;
23009;SDS011;11671;49.990;8.028;2023-03-01T09:44:20;19.73;;;11.90;;
23009;SDS011;11671;49.990;8.028;2023-03-01T09:46:48;20.88;;;13.57;;
23009;SDS011;11671;49.990;8.028;2023-03-01T09:51:54;23.25;;;13.52;;
23009;SDS011;11671;49.990;8.028;2023-03-01T09:54:23;17.90;;;12.60;;
23009;SDS011;11671;49.990;8.028;2023-03-01T09:59:33;22.63;;;12.40;;
23009;SDS011;11671;49.990;8.028;2023-03-01T10:09:59;22.17;;;13.27;;
23009;SDS011;11671;49.990;8.028;2023-03-01T10:12:33;20.35;;;11.90;;
23009;SDS011;11671;49.990;8.028;2023-03-01T10:15:04;19.52;;;12.43;;
23009;SDS011;11671;49.990;8.028;2023-03-01T10:17:41;21.25;;;13.73;;
23009;SDS011;11671;49.990;8.028;2023-03-01T10:20:16;21.48;;;12.40;;
23009;SDS011;11671;49.990;8.028;2023-03-01T10:22:56;20.60;;;12.18;;
23009;SDS011;11671;49.990;8.028;2023-03-01T10:28:24;20.73;;;12.73;;
23009;SDS011;11671;49.990;8.028;2023-03-01T10:30:50;21.65;;;13.68;;
23009;SDS011;11671;49.990;8.028;2023-03-01T10:33:17;21.15;;;13.23;;
23009;SDS011;11671;49.990;8.028;2023-03-01T10:35:52;19.30;;;12.40;;
23009;SDS011;11671;49.990;8.028;2023-03-01T10:38:19;18.20;;;12.98;;
23009;SDS011;11671;49.990;8.028;2023-03-01T10:40:54;24.35;;;13.77;;
23009;SDS011;11671;49.990;8.028;2023-03-01T10:43:22;19.50;;;13.23;;
23009;SDS011;11671;49.990;8.028;2023-03-01T10:45:54;25.85;;;13.18;;
23009;SDS011;11671;49.990;8.028;2023-03-01T10:53:24;19.08;;;11.88;;
23009;SDS011;11671;49.990;8.028;2023-03-01T10:56:07;21.10;;;12.38;;
23009;SDS011;11671;49.990;8.028;2023-03-01T10:59:00;22.42;;;13.68;;
23009;SDS011;11671;49.990;8.028;2023-03-01T11:01:34;20.58;;;12.40;;
23009;SDS011;11671;49.990;8.028;2023-03-01T11:06:35;22.08;;;13.25;;
23009;SDS011;11671;49.990;8.028;2023-03-01T11:09:17;19.52;;;13.90;;
23009;SDS011;11671;49.990;8.028;2023-03-01T11:11:45;18.55;;;12.63;;
23009;SDS011;11671;49.990;8.028;2023-03-01T11:14:17;20.30;;;13.57;;
23009;SDS011;11671;49.990;8.028;2023-03-01T11:16:47;19.15;;;11.80;;
23009;SDS011;11671;49.990;8.028;2023-03-01T11:19:16;22.35;;;12.93;;
23009;SDS011;11671;49.990;8.028;2023-03-01T11:24:18;19.83;;;11.45;;
23009;SDS011;11671;49.990;8.028;2023-03-01T11:26:51;19.80;;;12.23;;
23009;SDS011;11671;49.990;8.028;2023-03-01T11:29:26;19.88;;;12.32;;
23009;SDS011;11671;49.990;8.028;2023-03-01T11:31:57;23.83;;;13.93;;
23009;SDS011;11671;49.990;8.028;2023-03-01T11:37:16;21.50;;;12.13;;
23009;SDS011;11671;49.990;8.028;2023-03-01T11:45:42;17.35;;;12.07;;
23009;SDS011;11671;49.990;8.028;2023-03-01T11:51:16;19.25;;;11.80;;
23009;SDS011;11671;49.990;8.028;2023-03-01T11:56:19;17.70;;;11.02;;
23009;SDS011;11671;49.990;8.028;2023-03-01T12:07:32;22.38;;;12.48;;
23009;SDS011;11671;49.990;8.028;2023-03-01T12:10:23;16.95;;;12.48;;
23009;SDS011;11671;49.990;8.028;2023-03-01T12:29:55;15.77;;;9.52;;
23009;SDS011;11671;49.990;8.028;2023-03-01T12:35:29;15.10;;;9.07;;
23009;SDS011;11671;49.990;8.028;2023-03-01T12:38:19;12.88;;;8.55;;
23009;SDS011;11671;49.990;8.028;2023-03-01T12:41:15;14.48;;;9.60;;
23009;SDS011;11671;49.990;8.028;2023-03-01T12:44:31;14.23;;;9.15;;
23009;SDS011;11671;49.990;8.028;2023-03-01T12:50:03;15.98;;;9.20;;
23009;SDS011;11671;49.990;8.028;2023-03-01T12:52:40;15.05;;;8.82;;
23009;SDS011;11671;49.990;8.028;2023-03-01T12:58:06;16.40;;;9.00;;
23009;SDS011;11671;49.990;8.028;2023-03-01T13:09:40;15.52;;;8.10;;
23009;SDS011;11671;49.990;8.028;2023-03-01T13:17:47;14.02;;;8.65;;
23009;SDS011;11671;49.990;8.028;2023-03-01T13:23:09;11.52;;;7.90;;
23009;SDS011;11671;49.990;8.028;2023-03-01T13:43:36;11.55;;;7.53;;
23009;SDS011;11671;49.990;8.028;2023-03-01T13:46:11;14.32;;;7.30;;
23009;SDS011;11671;49.990;8.028;2023-03-01T13:48:52;10.57;;;7.18;;
23009;SDS011;11671;49.990;8.028;2023-03-01T13:51:22;10.57;;;6.63;;
23009;SDS011;11671;49.990;8.028;2023-03-01T13:53:50;12.02;;;7.35;;
23009;SDS011;11671;49.990;8.028;2023-03-01T13:56:27;10.95;;;7.32;;
23009;SDS011;11671;49.990;8.028;2023-03-01T13:58:59;10.20;;;7.00;;
23009;SDS011;11671;49.990;8.028;2023-03-01T14:03:56;11.60;;;7.47;;
23009;SDS011;11671;49.990;8.028;2023-03-01T14:06:26;15.65;;;7.25;;
23009;SDS011;11671;49.990;8.028;2023-03-01T14:09:03;10.38;;;6.82;;
23009;SDS011;11671;49.990;8.028;2023-03-01T14:11:33;12.35;;;7.25;;
23009;SDS011;11671;49.990;8.028;2023-03-01T14:19:55;13.85;;;7.53;;
23009;SDS011;11671;49.990;8.028;2023-03-01T14:22:28;10.15;;;6.85;;
23009;SDS011;11671;49.990;8.028;2023-03-01T14:30:30;11.30;;;7.88;;
23009;SDS011;11671;49.990;8.028;2023-03-01T14:33:00;10.60;;;7.15;;
23009;SDS011;11671;49.990;8.028;2023-03-01T14:35:29;12.73;;;7.53;;
23009;SDS011;11671;49.990;8.028;2023-03-01T14:37:56;11.27;;;6.90;;
23009;SDS011;11671;49.990;8.028;2023-03-01T14:40:32;12.13;;;6.88;;
23009;SDS011;11671;49.990;8.028;2023-03-01T14:43:03;11.02;;;7.60;;
23009;SDS011;11671;49.990;8.028;2023-03-01T14:45:35;10.68;;;7.10;;
23009;SDS011;11671;49.990;8.028;2023-03-01T14:50:31;11.07;;;7.18;;
23009;SDS011;11671;49.990;8.028;2023-03-01T14:53:00;10.88;;;6.93;;
23009;SDS011;11671;49.990;8.028;2023-03-01T14:55:29;13.95;;;6.80;;
23009;SDS011;11671;49.990;8.028;2023-03-01T14:58:06;10.50;;;6.95;;
23009;SDS011;11671;49.990;8.028;2023-03-01T15:00:37;11.50;;;7.35;;
23009;SDS011;11671;49.990;8.028;2023-03-01T15:06:05;13.50;;;7.20;;
23009;SDS011;11671;49.990;8.028;2023-03-01T15:08:32;16.27;;;8.35;;
23009;SDS011;11671;49.990;8.028;2023-03-01T15:11:02;14.90;;;7.80;;
23009;SDS011;11671;49.990;8.028;2023-03-01T15:13:41;13.48;;;8.05;;
23009;SDS011;11671;49.990;8.028;2023-03-01T15:16:28;14.63;;;8.02;;
23009;SDS011;11671;49.990;8.028;2023-03-01T15:18:56;12.93;;;7.30;;
23009;SDS011;11671;49.990;8.028;2023-03-01T15:21:25;12.70;;;6.80;;
23009;SDS011;11671;49.990;8.028;2023-03-01T15:23:55;15.35;;;7.38;;
23009;SDS011;11671;49.990;8.028;2023-03-01T15:26:44;11.55;;;7.05;;
23009;SDS011;11671;49.990;8.028;2023-03-01T15:29:33;13.05;;;7.65;;
23009;SDS011;11671;49.990;8.028;2023-03-01T15:32:38;18.77;;;8.57;;
23009;SDS011;11671;49.990;8.028;2023-03-01T15:34:59;12.20;;;7.50;;
23009;SDS011;11671;49.990;8.028;2023-03-01T15:37:46;13.52;;;7.35;;
23009;SDS011;11671;49.990;8.028;2023-03-01T15:40:32;12.25;;;7.32;;
23009;SDS011;11671;49.990;8.028;2023-03-01T15:42:58;18.00;;;8.50;;
23009;SDS011;11671;49.990;8.028;2023-03-01T15:45:26;15.57;;;8.57;;
23009;SDS011;11671;49.990;8.028;2023-03-01T15:52:52;13.63;;;8.10;;
23009;SDS011;11671;49.990;8.028;2023-03-01T15:57:46;17.25;;;10.25;;
23009;SDS011;11671;49.990;8.028;2023-03-01T16:00:13;12.20;;;8.13;;
23009;SDS011;11671;49.990;8.028;2023-03-01T16:02:40;18.30;;;8.82;;
23009;SDS011;11671;49.990;8.028;2023-03-01T16:05:26;14.02;;;7.55;;
23009;SDS011;11671;49.990;8.028;2023-03-01T16:07:53;14.13;;;8.43;;
23009;SDS011;11671;49.990;8.028;2023-03-01T16:12:45;12.55;;;7.95;;
23009;SDS011;11671;49.990;8.028;2023-03-01T16:17:44;11.65;;;7.18;;
23009;SDS011;11671;49.990;8.028;2023-03-01T16:22:35;15.73;;;8.32;;
23009;SDS011;11671;49.990;8.028;2023-03-01T16:27:27;14.85;;;8.02;;
23009;SDS011;11671;49.990;8.028;2023-03-01T16:32:19;19.13;;;7.40;;
23009;SDS011;11671;49.990;8.028;2023-03-01T16:34:44;16.05;;;8.07;;
23009;SDS011;11671;49.990;8.028;2023-03-01T16:37:12;12.38;;;7.82;;
23009;SDS011;11671;49.990;8.028;2023-03-01T16:42:03;17.30;;;8.30;;
23009;SDS011;11671;49.990;8.028;2023-03-01T16:46:55;15.40;;;7.80;;
23009;SDS011;11671;49.990;8.028;2023-03-01T16:51:46;12.88;;;7.20;;
23009;SDS011;11671;49.990;8.028;2023-03-01T16:56:37;14.00;;;7.05;;
23009;SDS011;11671;49.990;8.028;2023-03-01T16:59:04;17.33;;;8.52;;
23009;SDS011;11671;49.990;8.028;2023-03-01T17:01:30;13.05;;;7.70;;
23009;SDS011;11671;49.990;8.028;2023-03-01T17:04:02;13.77;;;6.97;;
23009;SDS011;11671;49.990;8.028;2023-03-01T17:06:28;14.45;;;7.97;;
23009;SDS011;11671;49.990;8.028;2023-03-01T17:11:19;11.35;;;5.97;;
23009;SDS011;11671;49.990;8.028;2023-03-01T17:16:12;11.07;;;6.10;;
23009;SDS011;11671;49.990;8.028;2023-03-01T17:18:40;15.32;;;6.82;;
23009;SDS011;11671;49.990;8.028;2023-03-01T17:23:32;13.82;;;7.38;;
23009;SDS011;11671;49.990;8.028;2023-03-01T17:25:59;15.00;;;7.40;;
23009;SDS011;11671;49.990;8.028;2023-03-01T17:28:26;13.38;;;6.95;;
23009;SDS011;11671;49.990;8.028;2023-03-01T17:30:53;15.23;;;8.88;;
23009;SDS011;11671;49.990;8.028;2023-03-01T17:35:45;13.13;;;7.82;;
23009;SDS011;11671;49.990;8.028;2023-03-01T17:40:40;17.15;;;9.07;;
23009;SDS011;11671;49.990;8.028;2023-03-01T17:43:07;21.48;;;8.82;;
23009;SDS011;11671;49.990;8.028;2023-03-01T17:45:35;16.00;;;7.68;;
23009;SDS011;11671;49.990;8.028;2023-03-01T17:48:01;13.40;;;7.72;;
23009;SDS011;11671;49.990;8.028;2023-03-01T17:50:27;15.07;;;8.45;;
23009;SDS011;11671;49.990;8.028;2023-03-01T17:55:19;11.85;;;7.25;;
23009;SDS011;11671;49.990;8.028;2023-03-01T17:57:46;13.98;;;6.95;;
23009;SDS011;11671;49.990;8.028;2023-03-01T18:00:12;15.65;;;7.13;;
23009;SDS011;11671;49.990;8.028;2023-03-01T18:02:39;12.82;;;6.53;;
23009;SDS011;11671;49.990;8.028;2023-03-01T18:05:05;14.38;;;7.22;;
23009;SDS011;11671;49.990;8.028;2023-03-01T18:07:35;14.00;;;7.65;;
23009;SDS011;11671;49.990;8.028;2023-03-01T18:10:01;11.18;;;6.85;;
23009;SDS011;11671;49.990;8.028;2023-03-01T18:12:29;15.70;;;6.97;;
23009;SDS011;11671;49.990;8.028;2023-03-01T18:14:55;12.70;;;6.53;;
23009;SDS011;11671;49.990;8.028;2023-03-01T18:19:47;12.57;;;6.68;;
23009;SDS011;11671;49.990;8.028;2023-03-01T18:24:38;12.73;;;6.93;;
23009;SDS011;11671;49.990;8.028;2023-03-01T18:29:30;14.63;;;6.68;;
23009;SDS011;11671;49.990;8.028;2023-03-01T18:34:21;11.63;;;6.65;;
23009;SDS011;11671;49.990;8.028;2023-03-01T18:39:16;12.95;;;5.78;;
23009;SDS011;11671;49.990;8.028;2023-03-01T18:41:42;13.95;;;7.47;;
23009;SDS011;11671;49.990;8.028;2023-03-01T18:46:33;13.13;;;6.75;;
23009;SDS011;11671;49.990;8.028;2023-03-01T18:49:01;13.45;;;6.93;;
23009;SDS011;11671;49.990;8.028;2023-03-01T18:53:52;14.23;;;7.50;;
23009;SDS011;11671;49.990;8.028;2023-03-01T18:56:19;15.55;;;8.27;;
23009;SDS011;11671;49.990;8.028;2023-03-01T19:01:20;12.77;;;7.05;;
23009;SDS011;11671;49.990;8.028;2023-03-01T19:03:48;14.32;;;7.15;;
23009;SDS011;11671;49.990;8.028;2023-03-01T19:06:14;19.90;;;11.15;;
23009;SDS011;11671;49.990;8.028;2023-03-01T19:08:40;17.80;;;9.15;;
23009;SDS011;11671;49.990;8.028;2023-03-01T19:11:07;17.00;;;9.40;;
23009;SDS011;11671;49.990;8.028;2023-03-01T19:13:34;15.35;;;8.70;;
23009;SDS011;11671;49.990;8.028;2023-03-01T19:16:08;18.73;;;9.48;;